createdAt,value
2018-02-09T00:02:06.181Z,67.60
2018-02-09T00:04:37.122Z,67.70
2018-02-09T00:07:07.642Z,67.60
2018-02-09T00:09:38.273Z,67.50
2018-02-09T00:12:09.590Z,67.50
2018-02-09T00:14:40.037Z,67.30
2018-02-09T00:17:10.409Z,67.20
2018-02-09T00:19:41.546Z,66.90
2018-02-09T00:22:15.417Z,66.50
2018-02-09T00:24:47.458Z,66.10
2018-02-09T00:27:17.917Z,66.00
2018-02-09T00:29:48.327Z,66.00
2018-02-09T00:32:19.825Z,65.90
2018-02-09T00:34:51.764Z,66.40
2018-02-09T00:37:22.945Z,66.00
2018-02-09T00:39:53.661Z,66.00
2018-02-09T00:42:24.787Z,65.30
2018-02-09T00:44:55.133Z,65.30
2018-02-09T00:47:26.602Z,64.60
2018-02-09T00:49:56.971Z,64.60
2018-02-09T00:52:29.248Z,63.90
2018-02-09T00:54:59.570Z,62.00
2018-02-09T00:57:30.931Z,61.80
2018-02-09T01:00:01.387Z,61.80
2018-02-09T01:02:32.646Z,61.80
2018-02-09T01:05:04.283Z,61.90
2018-02-09T01:07:35.497Z,59.60
2018-02-09T01:10:07.902Z,59.60
2018-02-09T01:12:39.051Z,59.00
2018-02-09T01:15:09.469Z,59.00
2018-02-09T01:17:40.631Z,58.40
2018-02-09T01:20:12.030Z,58.40
2018-02-09T01:22:45.354Z,59.10
2018-02-09T01:25:16.434Z,59.30
2018-02-09T01:27:46.838Z,59.30
2018-02-09T01:30:18.013Z,58.60
2018-02-09T01:32:48.431Z,58.60
2018-02-09T01:35:19.403Z,58.60
2018-02-09T01:37:49.782Z,58.40
2018-02-09T01:40:21.254Z,58.20
2018-02-09T01:42:51.651Z,58.30
2018-02-09T01:45:22.184Z,58.50
2018-02-09T01:47:52.598Z,58.70
2018-02-09T01:50:23.062Z,59.00
2018-02-09T01:52:53.837Z,59.50
2018-02-09T01:55:25.001Z,57.20
2018-02-09T01:57:56.439Z,57.30
2018-02-09T02:00:27.547Z,57.20
2018-02-09T02:02:57.946Z,57.20
2018-02-09T02:05:29.634Z,57.00
2018-02-09T02:08:00.054Z,56.80
2018-02-09T02:10:31.827Z,56.70
2018-02-09T02:13:02.215Z,56.10
2018-02-09T02:15:32.594Z,55.10
2018-02-09T02:18:03.778Z,55.10
2018-02-09T02:20:34.249Z,55.10
2018-02-09T02:23:05.469Z,55.10
2018-02-09T02:25:37.244Z,55.30
2018-02-09T02:28:08.274Z,55.30
2018-02-09T02:30:38.787Z,55.30
2018-02-09T02:33:09.113Z,55.40
2018-02-09T02:35:40.023Z,55.50
2018-02-09T02:38:10.398Z,55.60
2018-02-09T02:40:41.009Z,55.20
2018-02-09T02:43:11.392Z,55.20
2018-02-09T02:45:42.559Z,55.60
2018-02-09T02:48:12.955Z,55.50
2018-02-09T02:50:44.534Z,55.40
2018-02-09T02:53:15.131Z,55.30
2018-02-09T02:55:46.318Z,55.00
2018-02-09T02:58:16.975Z,55.00
2018-02-09T03:00:48.159Z,55.00
2018-02-09T03:03:19.423Z,55.20
2018-02-09T03:05:50.512Z,55.20
2018-02-09T03:08:20.842Z,55.00
2018-02-09T03:10:51.631Z,54.40
2018-02-09T03:13:22.063Z,54.60
2018-02-09T03:15:52.542Z,54.60
2018-02-09T03:18:23.623Z,54.20
2018-02-09T03:20:55.146Z,54.00
2018-02-09T03:23:27.500Z,54.20
2018-02-09T03:25:57.875Z,54.20
2018-02-09T03:28:28.681Z,54.00
2018-02-09T03:30:59.876Z,53.10
2018-02-09T03:33:30.305Z,53.10
2018-02-09T03:36:00.746Z,53.60
2018-02-09T03:38:31.198Z,53.20
2018-02-09T03:41:03.365Z,53.00
2018-02-09T03:43:34.661Z,53.50
2018-02-09T03:46:05.416Z,53.50
2018-02-09T03:48:35.823Z,52.90
2018-02-09T03:51:06.337Z,52.80
2018-02-09T03:53:36.787Z,52.70
2018-02-09T03:56:07.178Z,53.00
2018-02-09T03:58:38.962Z,53.00
2018-02-09T04:01:09.384Z,53.00
2018-02-09T04:03:39.835Z,52.30
2018-02-09T04:06:10.335Z,52.80
2018-02-09T04:08:40.782Z,52.90
2018-02-09T04:11:12.327Z,52.80
2018-02-09T04:13:42.742Z,52.70
2018-02-09T04:16:13.877Z,52.40
2018-02-09T04:18:44.301Z,52.00
2018-02-09T04:21:14.758Z,51.20
2018-02-09T04:23:47.908Z,51.50
2018-02-09T04:26:18.278Z,51.50
2018-02-09T04:28:49.715Z,51.20
2018-02-09T04:31:20.141Z,50.90
2018-02-09T04:33:51.346Z,51.20
2018-02-09T04:36:21.914Z,51.50
2018-02-09T04:38:52.702Z,51.50
2018-02-09T04:41:25.611Z,52.00
2018-02-09T04:43:56.089Z,51.90
2018-02-09T04:46:26.754Z,52.10
2018-02-09T04:48:58.700Z,51.80
2018-02-09T04:51:29.338Z,51.80
2018-02-09T04:54:00.497Z,51.50
2018-02-09T04:56:31.051Z,51.50
2018-02-09T04:59:01.720Z,51.80
2018-02-09T05:01:32.069Z,52.00
2018-02-09T05:04:03.319Z,52.30
2018-02-09T05:06:34.469Z,52.70
2018-02-09T05:09:05.972Z,52.50
2018-02-09T05:11:36.890Z,52.50
2018-02-09T05:14:07.929Z,52.30
2018-02-09T05:16:38.821Z,52.40
2018-02-09T05:19:11.884Z,52.10
2018-02-09T05:21:42.350Z,52.10
2018-02-09T05:24:13.430Z,52.20
2018-02-09T05:26:45.479Z,52.50
2018-02-09T05:29:17.031Z,52.50
2018-02-09T05:31:47.589Z,52.20
2018-02-09T05:34:18.041Z,52.30
2018-02-09T05:36:49.409Z,52.70
2018-02-09T05:39:20.560Z,52.50
2018-02-09T05:41:51.427Z,52.40
2018-02-09T05:44:21.790Z,52.50
2018-02-09T05:46:53.891Z,51.80
2018-02-09T05:49:24.302Z,52.30
2018-02-09T05:51:55.426Z,52.80
2018-02-09T05:54:26.859Z,52.80
2018-02-09T05:56:57.277Z,53.30
2018-02-09T05:59:28.468Z,54.10
2018-02-09T06:01:59.673Z,53.70
2018-02-09T06:04:30.116Z,53.70
2018-02-09T06:07:00.593Z,53.50
2018-02-09T06:09:30.969Z,53.90
2018-02-09T06:12:02.174Z,54.10
2018-02-09T06:14:32.614Z,54.00
2018-02-09T06:17:04.342Z,54.40
2018-02-09T06:19:34.719Z,54.70
2018-02-09T06:22:05.126Z,54.80
2018-02-09T06:24:35.519Z,54.60
2018-02-09T06:27:05.951Z,55.00
2018-02-09T06:29:36.825Z,55.10
2018-02-09T06:32:07.314Z,54.00
2018-02-09T06:34:37.832Z,53.80
2018-02-09T06:37:08.254Z,54.30
2018-02-09T06:39:38.763Z,54.40
2018-02-09T06:42:09.925Z,53.90
2018-02-09T06:44:40.368Z,53.90
2018-02-09T06:47:12.890Z,54.10
2018-02-09T06:49:44.130Z,53.70
2018-02-09T06:52:14.534Z,53.70
2018-02-09T06:54:44.943Z,54.10
2018-02-09T06:57:15.650Z,53.40
2018-02-09T06:59:47.137Z,53.40
2018-02-09T07:02:19.374Z,53.80
2018-02-09T07:04:50.991Z,53.80
2018-02-09T07:07:23.513Z,53.30
2018-02-09T07:09:54.005Z,54.40
2018-02-09T07:12:24.578Z,54.00
2018-02-09T07:14:54.983Z,54.00
2018-02-09T07:17:28.102Z,53.30
2018-02-09T07:19:58.623Z,53.30
2018-02-09T07:22:28.944Z,53.20
2018-02-09T07:25:00.065Z,53.10
2018-02-09T07:27:31.209Z,54.30
2018-02-09T07:30:04.614Z,53.40
2018-02-09T07:32:35.609Z,53.40
2018-02-09T07:35:06.158Z,53.40
2018-02-09T07:37:37.635Z,53.60
2018-02-09T07:40:08.878Z,53.00
2018-02-09T07:42:39.332Z,53.00
2018-02-09T07:45:09.783Z,53.50
2018-02-09T07:47:40.518Z,54.10
2018-02-09T07:50:10.937Z,53.10
2018-02-09T07:52:41.721Z,52.80
2018-02-09T07:55:12.866Z,52.00
2018-02-09T07:57:44.047Z,51.10
2018-02-09T08:00:15.266Z,51.10
2018-02-09T08:02:45.710Z,50.90
2018-02-09T08:05:16.530Z,51.60
2018-02-09T08:07:47.572Z,51.30
2018-02-09T08:10:18.067Z,52.30
2018-02-09T08:12:48.395Z,52.70
2018-02-09T08:15:19.409Z,53.50
2018-02-09T08:17:50.874Z,53.10
2018-02-09T08:20:21.282Z,53.40
2018-02-09T08:22:51.674Z,53.80
2018-02-09T08:25:22.101Z,53.60
2018-02-09T08:27:52.566Z,53.80
2018-02-09T08:30:22.950Z,53.80
2018-02-09T08:32:53.657Z,54.00
2018-02-09T08:35:26.311Z,54.20
2018-02-09T08:37:56.698Z,54.10
2018-02-09T08:40:27.113Z,54.70
2018-02-09T08:42:57.516Z,55.20
2018-02-09T08:45:28.747Z,55.20
2018-02-09T08:48:00.113Z,55.10
2018-02-09T08:50:31.245Z,55.10
2018-02-09T08:53:02.422Z,55.70
2018-02-09T08:55:33.907Z,55.80
2018-02-09T08:58:04.383Z,55.70
2018-02-09T09:00:34.947Z,55.30
2018-02-09T09:03:05.406Z,55.40
2018-02-09T09:05:36.130Z,55.50
2018-02-09T09:08:06.614Z,55.80
2018-02-09T09:10:37.166Z,56.00
2018-02-09T09:13:07.506Z,56.30
2018-02-09T09:15:38.794Z,56.30
2018-02-09T09:18:10.018Z,56.40
2018-02-09T09:20:40.435Z,56.30
2018-02-09T09:23:11.254Z,56.20
2018-02-09T09:25:41.790Z,56.10
2018-02-09T09:28:12.214Z,55.20
2018-02-09T09:30:42.659Z,55.40
2018-02-09T09:33:13.122Z,55.70
2018-02-09T09:35:43.875Z,55.60
2018-02-09T09:38:14.278Z,55.60
2018-02-09T09:40:45.765Z,55.60
2018-02-09T09:43:16.187Z,55.60
2018-02-09T09:45:46.633Z,55.30
2018-02-09T09:48:16.989Z,55.80
2018-02-09T09:50:48.366Z,55.10
2018-02-09T09:53:19.060Z,55.10
2018-02-09T09:55:49.497Z,55.20
2018-02-09T09:58:20.633Z,55.60
2018-02-09T10:00:51.054Z,55.50
2018-02-09T10:03:21.449Z,55.70
2018-02-09T10:05:52.270Z,56.00
2018-02-09T10:08:22.707Z,55.70
2018-02-09T10:10:53.565Z,55.80
2018-02-09T10:13:23.992Z,55.20
2018-02-09T10:15:54.390Z,55.30
2018-02-09T10:18:26.135Z,55.10
2018-02-09T10:20:56.499Z,55.50
2018-02-09T10:23:27.114Z,55.30
2018-02-09T10:25:57.569Z,55.10
2018-02-09T10:28:28.234Z,54.40
2018-02-09T10:30:59.450Z,54.30
2018-02-09T10:33:30.482Z,54.20
2018-02-09T10:36:00.916Z,54.20
2018-02-09T10:38:31.221Z,54.00
2018-02-09T10:41:01.922Z,54.30
2018-02-09T10:43:32.314Z,54.30
2018-02-09T10:46:03.506Z,53.50
2018-02-09T10:48:34.542Z,53.40
2018-02-09T10:51:04.911Z,53.00
2018-02-09T10:53:35.634Z,52.60
2018-02-09T10:56:05.989Z,52.80
2018-02-09T10:58:37.346Z,52.50
2018-02-09T11:01:08.734Z,52.20
2018-02-09T11:03:39.113Z,52.20
2018-02-09T11:06:10.259Z,52.10
2018-02-09T11:08:41.370Z,53.30
2018-02-09T11:11:16.896Z,53.30
2018-02-09T11:13:47.514Z,53.60
2018-02-09T11:16:17.877Z,53.10
2018-02-09T11:18:48.324Z,53.00
2018-02-09T11:21:19.493Z,52.70
2018-02-09T11:23:50.233Z,52.70
2018-02-09T11:26:20.560Z,52.60
2018-02-09T11:28:51.193Z,52.70
2018-02-09T11:31:21.621Z,53.00
2018-02-09T11:33:52.043Z,53.30
2018-02-09T11:36:22.348Z,53.20
2018-02-09T11:38:52.739Z,53.50
2018-02-09T11:41:23.199Z,53.40
2018-02-09T11:43:54.405Z,54.10
2018-02-09T11:46:24.791Z,54.10
2018-02-09T11:48:55.221Z,55.00
2018-02-09T11:51:25.645Z,55.10
2018-02-09T11:53:56.033Z,54.30
2018-02-09T11:56:27.225Z,55.20
2018-02-09T11:58:58.006Z,55.20
2018-02-09T12:01:29.694Z,55.30
2018-02-09T12:04:00.106Z,54.70
2018-02-09T12:06:32.222Z,53.80
2018-02-09T12:09:02.666Z,53.70
2018-02-09T12:11:33.430Z,53.70
2018-02-09T12:14:04.579Z,52.00
2018-02-09T12:16:35.038Z,52.00
2018-02-09T12:19:05.457Z,52.00
2018-02-09T12:21:35.988Z,52.00
2018-02-09T12:24:06.421Z,51.60
2018-02-09T12:26:36.929Z,52.00
2018-02-09T12:29:08.498Z,52.10
2018-02-09T12:31:38.966Z,52.10
2018-02-09T12:34:09.450Z,51.80
2018-02-09T12:36:39.982Z,52.10
2018-02-09T12:39:10.374Z,52.40
2018-02-09T12:41:41.949Z,52.50
2018-02-09T12:44:12.409Z,53.10
2018-02-09T12:46:43.154Z,52.30
2018-02-09T12:49:13.655Z,52.60
2018-02-09T12:51:44.150Z,52.60
2018-02-09T12:54:14.657Z,52.40
2018-02-09T12:56:46.114Z,52.20
2018-02-09T12:59:17.669Z,52.40
2018-02-09T13:01:48.839Z,52.60
2018-02-09T13:04:19.392Z,52.60
2018-02-09T13:06:49.991Z,52.90
2018-02-09T13:09:21.118Z,53.20
2018-02-09T13:11:52.699Z,54.20
2018-02-09T13:14:33.770Z,54.20
2018-02-09T13:17:04.614Z,54.60
2018-02-09T13:19:35.084Z,55.10
2018-02-09T13:22:05.798Z,55.50
2018-02-09T13:24:36.226Z,55.60
2018-02-09T13:27:06.997Z,55.80
2018-02-09T13:29:39.007Z,55.80
2018-02-09T13:32:09.701Z,55.80
2018-02-09T13:34:40.863Z,55.80
2018-02-09T13:37:31.061Z,55.80
2018-02-09T13:40:01.741Z,55.80
2018-02-09T13:42:33.577Z,56.30
2018-02-09T13:45:04.050Z,55.10
2018-02-09T13:47:35.586Z,55.30
2018-02-09T13:50:07.074Z,55.40
2018-02-09T13:52:37.838Z,55.50
2018-02-09T13:55:08.866Z,55.40
2018-02-09T13:57:39.741Z,55.60
2018-02-09T14:00:11.158Z,55.60
2018-02-09T14:02:41.942Z,55.90
2018-02-09T14:05:13.533Z,55.90
2018-02-09T14:07:44.129Z,55.90
2018-02-09T14:10:21.190Z,55.90
2018-02-09T14:12:52.322Z,55.90
2018-02-09T14:15:23.172Z,56.30
2018-02-09T14:17:53.938Z,56.40
2018-02-09T14:20:25.873Z,57.10
2018-02-09T14:22:56.719Z,57.10
2018-02-09T14:25:28.535Z,58.00
2018-02-09T14:27:59.183Z,58.10
2018-02-09T14:30:30.122Z,58.40
2018-02-09T14:33:02.123Z,58.90
2018-02-09T14:35:33.602Z,59.30
2018-02-09T14:38:04.367Z,59.30
2018-02-09T14:40:34.942Z,59.80
2018-02-09T14:43:06.874Z,60.50
2018-02-09T14:45:37.901Z,60.50
2018-02-09T14:48:08.507Z,61.30
2018-02-09T14:50:39.401Z,61.50
2018-02-09T14:53:10.967Z,62.00
2018-02-09T14:55:43.507Z,62.20
2018-02-09T14:58:14.570Z,62.20
2018-02-09T15:00:46.410Z,62.60
2018-02-09T15:03:17.045Z,62.60
2018-02-09T15:05:47.804Z,62.60
2018-02-09T15:08:19.130Z,62.40
2018-02-09T15:10:49.652Z,62.30
2018-02-09T15:13:20.446Z,62.30
2018-02-09T15:15:51.065Z,62.40
2018-02-09T15:18:21.710Z,62.30
2018-02-09T15:20:52.443Z,62.30
2018-02-09T15:23:23.023Z,62.30
2018-02-09T15:25:59.789Z,62.30
2018-02-09T15:28:30.390Z,62.30
2018-02-09T15:31:01.548Z,62.00
2018-02-09T15:33:32.027Z,62.30
2018-02-09T15:36:02.687Z,62.50
2018-02-09T15:38:33.437Z,62.20
2018-02-09T15:41:04.291Z,62.20
2018-02-09T15:43:35.129Z,62.10
2018-02-09T15:46:06.165Z,62.40
2018-02-09T15:48:36.824Z,63.30
2018-02-09T15:51:08.554Z,63.70
2018-02-09T15:53:39.128Z,63.70
2018-02-09T15:56:10.313Z,63.90
2018-02-09T15:58:41.957Z,64.00
2018-02-09T16:01:13.100Z,64.00
2018-02-09T16:03:43.853Z,64.60
2018-02-09T16:06:14.478Z,65.00
2018-02-09T16:08:45.266Z,65.10
2018-02-09T16:11:15.792Z,65.40
2018-02-09T16:13:47.342Z,66.00
2018-02-09T16:16:18.610Z,65.90
2018-02-09T16:18:49.693Z,65.80
2018-02-09T16:21:20.306Z,65.60
2018-02-09T16:23:50.746Z,65.80
2018-02-09T16:26:21.953Z,66.00
2018-02-09T16:28:52.481Z,66.30
2018-02-09T16:31:23.618Z,66.40
2018-02-09T16:33:54.082Z,66.50
2018-02-09T16:36:24.508Z,66.00
2018-02-09T16:38:54.978Z,65.50
2018-02-09T16:41:26.183Z,66.30
2018-02-09T16:43:57.265Z,66.30
2018-02-09T16:46:28.514Z,66.80
2018-02-09T16:49:00.136Z,66.70
2018-02-09T16:51:30.975Z,66.60
2018-02-09T16:54:01.405Z,66.70
2018-02-09T16:56:31.935Z,66.70
2018-02-09T16:59:02.993Z,66.80
2018-02-09T17:01:34.714Z,65.80
2018-02-09T17:04:05.082Z,65.70
2018-02-09T17:06:36.206Z,65.60
2018-02-09T17:09:06.644Z,66.40
2018-02-09T17:11:37.783Z,65.60
2018-02-09T17:14:09.322Z,65.60
2018-02-09T17:16:39.773Z,65.60
2018-02-09T17:19:11.197Z,65.70
2018-02-09T17:21:41.558Z,65.60
2018-02-09T17:24:12.756Z,65.80
2018-02-09T17:26:43.182Z,65.80
2018-02-09T17:29:14.792Z,65.90
2018-02-09T17:31:45.455Z,66.10
2018-02-09T17:34:15.882Z,66.90
2018-02-09T17:36:46.408Z,67.70
2018-02-09T17:39:16.750Z,68.50
2018-02-09T17:41:47.138Z,68.70
2018-02-09T17:44:18.009Z,68.50
2018-02-09T17:46:48.408Z,68.30
2018-02-09T17:49:19.149Z,68.70
2018-02-09T17:51:49.669Z,68.90
2018-02-09T17:54:20.097Z,69.10
2018-02-09T17:56:50.552Z,69.20
2018-02-09T17:59:21.006Z,69.40
2018-02-09T18:01:52.460Z,69.60
2018-02-09T18:04:23.746Z,69.60
2018-02-09T18:06:54.166Z,69.50
2018-02-09T18:09:24.630Z,69.50
2018-02-09T18:11:55.014Z,69.60
2018-02-09T18:14:25.697Z,69.80
2018-02-09T18:16:56.870Z,69.70
2018-02-09T18:19:28.518Z,69.70
2018-02-09T18:21:59.664Z,69.70
2018-02-09T18:24:30.855Z,70.00
2018-02-09T18:27:01.247Z,69.90
2018-02-09T18:29:32.766Z,70.40
2018-02-09T18:32:03.751Z,71.20
2018-02-09T18:34:34.803Z,70.30
2018-02-09T18:37:06.015Z,70.30
2018-02-09T18:39:37.537Z,69.90
2018-02-09T18:42:07.942Z,69.90
2018-02-09T18:44:38.900Z,69.90
2018-02-09T18:47:09.303Z,70.10
2018-02-09T18:49:40.098Z,70.20
2018-02-09T18:52:11.342Z,70.10
2018-02-09T18:54:42.494Z,69.90
2018-02-09T18:57:12.931Z,69.90
2018-02-09T18:59:43.966Z,70.00
2018-02-09T19:02:14.574Z,70.10
2018-02-09T19:04:45.721Z,70.40
2018-02-09T19:07:17.150Z,70.50
2018-02-09T19:09:47.501Z,70.40
2018-02-09T19:12:18.723Z,70.60
2018-02-09T19:14:49.061Z,70.60
2018-02-09T19:17:20.265Z,71.00
2018-02-09T19:19:51.123Z,71.00
2018-02-09T19:22:21.635Z,71.10
2018-02-09T19:24:52.082Z,71.20
2018-02-09T19:27:22.450Z,71.30
2018-02-09T19:29:52.904Z,71.20
2018-02-09T19:32:23.549Z,71.20
2018-02-09T19:34:54.039Z,71.20
2018-02-09T19:37:25.511Z,71.40
2018-02-09T19:39:55.922Z,71.60
2018-02-09T19:42:26.310Z,71.60
2018-02-09T19:44:58.334Z,71.50
2018-02-09T19:47:28.697Z,71.50
2018-02-09T19:50:00.353Z,71.60
2018-02-09T19:52:31.558Z,71.50
2018-02-09T19:55:01.961Z,71.50
2018-02-09T19:57:32.321Z,71.70
2018-02-09T20:00:02.755Z,71.70
2018-02-09T20:02:33.458Z,71.80
2018-02-09T20:05:03.838Z,71.80
2018-02-09T20:07:35.110Z,71.80
2018-02-09T20:10:05.511Z,71.80
2018-02-09T20:12:36.675Z,71.50
2018-02-09T20:15:07.103Z,71.40
2018-02-09T20:17:37.521Z,71.40
2018-02-09T20:20:08.337Z,71.30
2018-02-09T20:22:39.482Z,71.50
2018-02-09T20:25:10.422Z,71.40
2018-02-09T20:27:41.550Z,72.10
2018-02-09T20:30:12.029Z,72.10
2018-02-09T20:32:42.418Z,72.30
2018-02-09T20:35:13.584Z,72.40
2018-02-09T20:37:44.293Z,72.40
2018-02-09T20:40:15.477Z,72.50
2018-02-09T20:42:45.877Z,72.50
2018-02-09T20:45:16.323Z,72.50
2018-02-09T20:47:46.726Z,72.90
2018-02-09T20:50:17.960Z,73.10
2018-02-09T20:52:50.110Z,72.90
2018-02-09T20:55:20.689Z,72.90
2018-02-09T20:57:51.046Z,72.40
2018-02-09T21:00:21.432Z,72.90
2018-02-09T21:02:51.934Z,73.20
2018-02-09T21:05:23.133Z,73.30
2018-02-09T21:07:53.929Z,74.00
2018-02-09T21:10:24.369Z,73.10
2018-02-09T21:12:54.714Z,72.90
2018-02-09T21:15:25.106Z,72.80
2018-02-09T21:17:56.227Z,72.00
2018-02-09T21:20:27.730Z,71.30
2018-02-09T21:22:58.174Z,71.30
2018-02-09T21:25:29.049Z,70.90
2018-02-09T21:28:00.210Z,71.00
2018-02-09T21:30:30.616Z,71.00
2018-02-09T21:33:01.809Z,71.20
2018-02-09T21:35:32.145Z,71.10
2018-02-09T21:38:02.825Z,71.00
2018-02-09T21:40:34.031Z,70.80
2018-02-09T21:43:04.417Z,70.80
2018-02-09T21:45:34.869Z,70.80
2018-02-09T21:48:05.331Z,70.40
2018-02-09T21:50:35.759Z,70.70
2018-02-09T21:53:06.190Z,70.60
2018-02-09T21:55:38.110Z,71.10
2018-02-09T21:58:08.589Z,71.00
2018-02-09T22:00:39.736Z,71.20
2018-02-09T22:03:10.934Z,71.00
2018-02-09T22:05:41.374Z,70.90
2018-02-09T22:08:12.145Z,71.10
2018-02-09T22:10:43.310Z,71.00
2018-02-09T22:13:14.016Z,71.00
2018-02-09T22:15:45.164Z,69.80
2018-02-09T22:18:16.373Z,69.60
2018-02-09T22:20:46.834Z,69.60
2018-02-09T22:23:18.130Z,70.10
2018-02-09T22:25:49.125Z,70.10
2018-02-09T22:28:20.301Z,70.00
2018-02-09T22:30:50.620Z,70.10
2018-02-09T22:33:21.041Z,69.60
2018-02-09T22:35:51.382Z,69.70
2018-02-09T22:38:22.335Z,69.80
2018-02-09T22:40:52.737Z,69.90
2018-02-09T22:43:23.570Z,69.80
2018-02-09T22:45:54.000Z,69.30
2018-02-09T22:48:24.430Z,69.20
2018-02-09T22:50:55.120Z,69.00
2018-02-09T22:53:26.343Z,68.80
2018-02-09T22:55:57.795Z,68.80
2018-02-09T22:58:28.282Z,68.80
2018-02-09T23:00:58.626Z,68.90
2018-02-09T23:03:29.009Z,68.90
2018-02-09T23:05:59.414Z,69.00
2018-02-09T23:08:30.935Z,69.00
2018-02-09T23:11:01.296Z,69.00
2018-02-09T23:13:32.926Z,70.00
2018-02-09T23:16:03.287Z,69.90
2018-02-09T23:18:33.727Z,70.10
2018-02-09T23:21:04.095Z,70.30
2018-02-09T23:23:34.397Z,70.10
2018-02-09T23:26:05.162Z,70.10
2018-02-09T23:28:35.737Z,70.30
2018-02-09T23:31:06.501Z,70.60
2018-02-09T23:33:36.973Z,70.50
2018-02-09T23:36:08.193Z,70.10
2018-02-09T23:38:39.052Z,70.10
2018-02-09T23:41:10.263Z,69.80
2018-02-09T23:43:40.958Z,69.80
2018-02-09T23:46:11.293Z,69.80
2018-02-09T23:48:41.792Z,69.70
2018-02-09T23:51:13.298Z,70.60
2018-02-09T23:53:43.764Z,70.40
2018-02-09T23:56:15.189Z,70.60
2018-02-09T23:58:45.641Z,70.60
